sensor_id;sensor_type;location;lat;lon;timestamp;P1;P2;P0
66195;PMS7003;53000;45.182;5.736;2023-06-14T00:00:03;3.33;3.33;3.00
66195;PMS7003;53000;45.182;5.736;2023-06-14T00:02:30;5.00;3.00;2.67
66195;PMS7003;53000;45.182;5.736;2023-06-14T00:04:56;3.00;3.00;2.67
66195;PMS7003;53000;45.182;5.736;2023-06-14T00:07:27;3.33;3.00;2.33
66195;PMS7003;53000;45.182;5.736;2023-06-14T00:10:03;3.33;3.33;2.00
66195;PMS7003;53000;45.182;5.736;2023-06-14T00:12:29;3.00;3.00;3.00
66195;PMS7003;53000;45.182;5.736;2023-06-14T00:14:56;3.00;3.00;2.00
66195;PMS7003;53000;45.182;5.736;2023-06-14T00:17:21;4.00;4.00;3.00
66195;PMS7003;53000;45.182;5.736;2023-06-14T00:19:47;5.00;4.33;4.00
66195;PMS7003;53000;45.182;5.736;2023-06-14T00:22:12;3.00;3.00;3.00
66195;PMS7003;53000;45.182;5.736;2023-06-14T01:01:37;3.00;3.00;2.67
66195;PMS7003;53000;45.182;5.736;2023-06-14T01:04:03;1.00;1.00;1.00
66195;PMS7003;53000;45.182;5.736;2023-06-14T01:09:21;2.00;2.00;2.00
66195;PMS7003;53000;45.182;5.736;2023-06-14T01:14:55;6.00;3.00;3.00
66195;PMS7003;53000;45.182;5.736;2023-06-14T01:17:24;3.00;2.00;2.00
66195;PMS7003;53000;45.182;5.736;2023-06-14T01:19:52;5.00;3.00;2.00
66195;PMS7003;53000;45.182;5.736;2023-06-14T01:22:23;3.00;3.00;3.00
66195;PMS7003;53000;45.182;5.736;2023-06-14T01:24:51;2.00;1.33;1.00
66195;PMS7003;53000;45.182;5.736;2023-06-14T01:27:20;3.00;3.00;2.67
66195;PMS7003;53000;45.182;5.736;2023-06-14T01:29:50;2.00;2.00;2.00
66195;PMS7003;53000;45.182;5.736;2023-06-14T01:32:21;4.33;3.00;3.00
66195;PMS7003;53000;45.182;5.736;2023-06-14T01:34:51;3.00;3.00;2.00
66195;PMS7003;53000;45.182;5.736;2023-06-14T01:37:16;3.67;2.33;2.00
66195;PMS7003;53000;45.182;5.736;2023-06-14T01:39:43;3.00;3.00;3.00
66195;PMS7003;53000;45.182;5.736;2023-06-14T01:42:10;3.00;3.00;2.67
66195;PMS7003;53000;45.182;5.736;2023-06-14T01:44:37;2.00;2.00;2.00
66195;PMS7003;53000;45.182;5.736;2023-06-14T01:47:04;4.67;4.00;3.00
66195;PMS7003;53000;45.182;5.736;2023-06-14T01:49:33;2.33;2.33;2.33
66195;PMS7003;53000;45.182;5.736;2023-06-14T01:52:00;3.33;2.33;1.67
66195;PMS7003;53000;45.182;5.736;2023-06-14T01:54:25;3.00;2.33;2.00
66195;PMS7003;53000;45.182;5.736;2023-06-14T01:56:51;2.00;2.00;2.00
66195;PMS7003;53000;45.182;5.736;2023-06-14T01:59:16;2.00;2.00;2.00
66195;PMS7003;53000;45.182;5.736;2023-06-14T02:01:41;3.00;2.00;2.00
66195;PMS7003;53000;45.182;5.736;2023-06-14T02:04:07;3.67;2.00;1.33
66195;PMS7003;53000;45.182;5.736;2023-06-14T02:06:32;4.67;3.33;3.00
66195;PMS7003;53000;45.182;5.736;2023-06-14T02:09:00;2.00;2.00;2.00
66195;PMS7003;53000;45.182;5.736;2023-06-14T02:11:25;3.00;3.00;2.33
66195;PMS7003;53000;45.182;5.736;2023-06-14T02:13:52;3.67;3.67;3.00
66195;PMS7003;53000;45.182;5.736;2023-06-14T02:16:17;4.00;2.33;2.00
66195;PMS7003;53000;45.182;5.736;2023-06-14T02:18:43;4.33;2.00;2.00
66195;PMS7003;53000;45.182;5.736;2023-06-14T02:21:08;2.00;2.00;2.00
66195;PMS7003;53000;45.182;5.736;2023-06-14T02:23:33;2.00;2.00;1.67
66195;PMS7003;53000;45.182;5.736;2023-06-14T02:25:59;4.67;3.67;3.00
66195;PMS7003;53000;45.182;5.736;2023-06-14T02:28:24;4.33;3.67;3.00
66195;PMS7003;53000;45.182;5.736;2023-06-14T02:30:49;3.33;3.33;3.00
66195;PMS7003;53000;45.182;5.736;2023-06-14T02:33:14;2.33;2.33;2.00
66195;PMS7003;53000;45.182;5.736;2023-06-14T02:35:40;4.00;3.00;3.00
66195;PMS7003;53000;45.182;5.736;2023-06-14T02:38:05;3.67;3.00;2.67
66195;PMS7003;53000;45.182;5.736;2023-06-14T02:40:31;3.00;3.00;3.00
66195;PMS7003;53000;45.182;5.736;2023-06-14T02:42:56;3.00;3.00;3.00
66195;PMS7003;53000;45.182;5.736;2023-06-14T02:45:21;4.00;4.00;3.00
66195;PMS7003;53000;45.182;5.736;2023-06-14T02:47:47;2.67;2.67;2.33
66195;PMS7003;53000;45.182;5.736;2023-06-14T02:50:13;3.67;3.67;3.00
66195;PMS7003;53000;45.182;5.736;2023-06-14T02:52:38;3.00;3.00;3.00
66195;PMS7003;53000;45.182;5.736;2023-06-14T02:55:06;3.00;3.00;2.00
66195;PMS7003;53000;45.182;5.736;2023-06-14T02:57:33;3.67;3.33;2.33
66195;PMS7003;53000;45.182;5.736;2023-06-14T02:59:58;5.00;5.00;4.00
66195;PMS7003;53000;45.182;5.736;2023-06-14T03:02:23;9.67;7.00;5.33
66195;PMS7003;53000;45.182;5.736;2023-06-14T03:04:49;6.00;4.67;4.00
66195;PMS7003;53000;45.182;5.736;2023-06-14T03:07:15;3.00;3.00;2.67
66195;PMS7003;53000;45.182;5.736;2023-06-14T03:09:44;4.00;3.33;3.00
66195;PMS7003;53000;45.182;5.736;2023-06-14T03:12:10;3.00;3.00;2.00
66195;PMS7003;53000;45.182;5.736;2023-06-14T03:14:36;4.67;3.00;2.00
66195;PMS7003;53000;45.182;5.736;2023-06-14T03:17:04;4.00;4.00;3.00
66195;PMS7003;53000;45.182;5.736;2023-06-14T03:19:30;4.00;4.00;3.00
66195;PMS7003;53000;45.182;5.736;2023-06-14T03:21:55;5.33;3.00;2.33
66195;PMS7003;53000;45.182;5.736;2023-06-14T03:24:24;4.00;4.00;3.00
66195;PMS7003;53000;45.182;5.736;2023-06-14T03:26:52;4.00;3.00;3.00
66195;PMS7003;53000;45.182;5.736;2023-06-14T03:29:17;3.67;3.67;3.00
66195;PMS7003;53000;45.182;5.736;2023-06-14T03:31:56;5.67;4.67;4.00
66195;PMS7003;53000;45.182;5.736;2023-06-14T03:34:25;5.00;4.00;3.00
66195;PMS7003;53000;45.182;5.736;2023-06-14T03:36:50;2.67;2.67;2.00
66195;PMS7003;53000;45.182;5.736;2023-06-14T03:39:16;2.00;2.00;1.00
66195;PMS7003;53000;45.182;5.736;2023-06-14T03:41:41;5.00;3.67;3.00
66195;PMS7003;53000;45.182;5.736;2023-06-14T03:44:07;5.33;4.00;3.00
66195;PMS7003;53000;45.182;5.736;2023-06-14T03:46:32;4.00;3.00;3.00
66195;PMS7003;53000;45.182;5.736;2023-06-14T03:49:00;2.67;2.67;2.67
66195;PMS7003;53000;45.182;5.736;2023-06-14T03:51:27;2.00;2.00;2.00
66195;PMS7003;53000;45.182;5.736;2023-06-14T03:53:53;3.00;2.00;1.00
66195;PMS7003;53000;45.182;5.736;2023-06-14T03:56:19;4.67;3.67;3.00
66195;PMS7003;53000;45.182;5.736;2023-06-14T03:58:44;2.00;2.00;1.33
66195;PMS7003;53000;45.182;5.736;2023-06-14T04:01:10;4.00;4.00;3.00
66195;PMS7003;53000;45.182;5.736;2023-06-14T04:03:37;5.00;4.00;3.00
66195;PMS7003;53000;45.182;5.736;2023-06-14T04:06:03;5.00;5.00;3.33
66195;PMS7003;53000;45.182;5.736;2023-06-14T04:08:30;2.67;2.67;2.00
66195;PMS7003;53000;45.182;5.736;2023-06-14T04:10:55;4.00;3.00;3.00
66195;PMS7003;53000;45.182;5.736;2023-06-14T04:13:21;4.67;4.00;3.00
66195;PMS7003;53000;45.182;5.736;2023-06-14T04:15:46;4.00;4.00;3.00
66195;PMS7003;53000;45.182;5.736;2023-06-14T04:18:12;4.00;4.00;3.33
66195;PMS7003;53000;45.182;5.736;2023-06-14T04:20:38;4.00;4.00;3.00
66195;PMS7003;53000;45.182;5.736;2023-06-14T04:23:16;6.67;6.67;5.00
66195;PMS7003;53000;45.182;5.736;2023-06-14T04:25:46;5.33;5.00;4.00
66195;PMS7003;53000;45.182;5.736;2023-06-14T04:28:13;6.67;5.00;3.67
66195;PMS7003;53000;45.182;5.736;2023-06-14T04:30:42;4.00;4.00;3.00
66195;PMS7003;53000;45.182;5.736;2023-06-14T04:33:08;5.67;5.00;4.00
66195;PMS7003;53000;45.182;5.736;2023-06-14T04:35:34;4.00;4.00;4.00
66195;PMS7003;53000;45.182;5.736;2023-06-14T04:38:01;5.00;5.00;4.00
66195;PMS7003;53000;45.182;5.736;2023-06-14T04:40:29;5.00;5.00;4.00
66195;PMS7003;53000;45.182;5.736;2023-06-14T04:42:54;4.33;4.33;4.00
66195;PMS7003;53000;45.182;5.736;2023-06-14T04:45:20;4.00;4.00;3.00
66195;PMS7003;53000;45.182;5.736;2023-06-14T04:47:46;5.67;4.33;3.67
66195;PMS7003;53000;45.182;5.736;2023-06-14T04:50:12;6.00;6.00;5.00
66195;PMS7003;53000;45.182;5.736;2023-06-14T04:52:38;6.67;4.67;3.00
66195;PMS7003;53000;45.182;5.736;2023-06-14T04:55:03;5.33;5.00;4.00
66195;PMS7003;53000;45.182;5.736;2023-06-14T04:57:29;6.00;6.00;3.67
66195;PMS7003;53000;45.182;5.736;2023-06-14T04:59:54;6.00;5.00;3.00
66195;PMS7003;53000;45.182;5.736;2023-06-14T05:02:23;2.00;2.00;2.00
66195;PMS7003;53000;45.182;5.736;2023-06-14T05:04:49;7.33;4.00;3.67
66195;PMS7003;53000;45.182;5.736;2023-06-14T05:07:15;6.00;5.00;4.00
66195;PMS7003;53000;45.182;5.736;2023-06-14T05:09:41;5.00;5.00;4.33
66195;PMS7003;53000;45.182;5.736;2023-06-14T05:12:06;3.33;3.33;3.00
66195;PMS7003;53000;45.182;5.736;2023-06-14T05:14:35;5.00;4.67;3.67
66195;PMS7003;53000;45.182;5.736;2023-06-14T05:17:01;6.67;5.00;4.00
66195;PMS7003;53000;45.182;5.736;2023-06-14T05:19:27;5.67;5.67;4.00
66195;PMS7003;53000;45.182;5.736;2023-06-14T05:21:53;4.67;4.67;3.67
66195;PMS7003;53000;45.182;5.736;2023-06-14T05:24:18;6.00;4.67;3.33
66195;PMS7003;53000;45.182;5.736;2023-06-14T05:26:44;4.67;4.67;3.67
66195;PMS7003;53000;45.182;5.736;2023-06-14T05:29:10;6.00;6.00;4.67
66195;PMS7003;53000;45.182;5.736;2023-06-14T05:31:35;5.00;5.00;4.33
66195;PMS7003;53000;45.182;5.736;2023-06-14T05:34:00;6.67;3.33;3.00
66195;PMS7003;53000;45.182;5.736;2023-06-14T05:36:26;5.67;4.67;4.33
66195;PMS7003;53000;45.182;5.736;2023-06-14T05:38:52;5.33;3.33;3.00
66195;PMS7003;53000;45.182;5.736;2023-06-14T05:41:28;4.67;4.00;3.33
66195;PMS7003;53000;45.182;5.736;2023-06-14T05:43:54;7.00;4.67;4.00
66195;PMS7003;53000;45.182;5.736;2023-06-14T05:46:20;4.67;4.00;3.00
66195;PMS7003;53000;45.182;5.736;2023-06-14T05:48:49;6.00;4.00;4.00
66195;PMS7003;53000;45.182;5.736;2023-06-14T05:51:15;6.00;5.00;4.67
66195;PMS7003;53000;45.182;5.736;2023-06-14T05:53:44;4.67;4.00;4.00
66195;PMS7003;53000;45.182;5.736;2023-06-14T05:56:15;4.67;3.67;3.00
66195;PMS7003;53000;45.182;5.736;2023-06-14T05:58:42;5.00;5.00;4.00
66195;PMS7003;53000;45.182;5.736;2023-06-14T06:01:08;5.00;5.00;4.00
66195;PMS7003;53000;45.182;5.736;2023-06-14T06:03:34;7.00;5.67;4.00
66195;PMS7003;53000;45.182;5.736;2023-06-14T06:05:59;6.00;5.33;4.67
66195;PMS7003;53000;45.182;5.736;2023-06-14T06:08:25;6.33;4.67;3.67
66195;PMS7003;53000;45.182;5.736;2023-06-14T06:10:51;4.33;4.33;4.00
66195;PMS7003;53000;45.182;5.736;2023-06-14T06:13:16;6.67;5.33;4.00
66195;PMS7003;53000;45.182;5.736;2023-06-14T06:15:42;6.00;6.00;4.67
66195;PMS7003;53000;45.182;5.736;2023-06-14T06:18:07;7.67;5.67;4.33
66195;PMS7003;53000;45.182;5.736;2023-06-14T06:20:32;5.33;5.33;5.00
66195;PMS7003;53000;45.182;5.736;2023-06-14T06:22:58;5.33;5.00;5.00
66195;PMS7003;53000;45.182;5.736;2023-06-14T06:25:24;7.33;7.00;5.00
66195;PMS7003;53000;45.182;5.736;2023-06-14T06:27:52;6.00;4.00;2.33
66195;PMS7003;53000;45.182;5.736;2023-06-14T06:30:18;8.00;8.00;6.00
66195;PMS7003;53000;45.182;5.736;2023-06-14T06:32:44;7.33;6.00;5.00
66195;PMS7003;53000;45.182;5.736;2023-06-14T06:35:09;6.33;6.33;5.00
66195;PMS7003;53000;45.182;5.736;2023-06-14T06:37:36;9.33;7.67;6.33
66195;PMS7003;53000;45.182;5.736;2023-06-14T06:40:02;7.75;5.00;5.00
66195;PMS7003;53000;45.182;5.736;2023-06-14T06:42:29;9.00;8.33;5.67
66195;PMS7003;53000;45.182;5.736;2023-06-14T06:44:54;6.00;5.00;4.00
66195;PMS7003;53000;45.182;5.736;2023-06-14T06:47:20;6.33;4.33;4.00
66195;PMS7003;53000;45.182;5.736;2023-06-14T06:49:45;7.00;7.00;5.00
66195;PMS7003;53000;45.182;5.736;2023-06-14T06:52:10;7.00;5.67;5.00
66195;PMS7003;53000;45.182;5.736;2023-06-14T06:54:36;7.00;7.00;5.00
66195;PMS7003;53000;45.182;5.736;2023-06-14T06:57:01;8.67;7.67;6.00
66195;PMS7003;53000;45.182;5.736;2023-06-14T06:59:27;5.00;5.00;4.00
66195;PMS7003;53000;45.182;5.736;2023-06-14T07:01:52;5.00;4.33;4.00
66195;PMS7003;53000;45.182;5.736;2023-06-14T07:04:17;7.33;7.00;5.33
66195;PMS7003;53000;45.182;5.736;2023-06-14T07:06:43;7.00;6.00;5.00
66195;PMS7003;53000;45.182;5.736;2023-06-14T07:09:09;6.75;5.75;4.25
66195;PMS7003;53000;45.182;5.736;2023-06-14T07:11:38;7.25;7.25;6.00
66195;PMS7003;53000;45.182;5.736;2023-06-14T07:14:04;7.00;7.00;6.00
66195;PMS7003;53000;45.182;5.736;2023-06-14T07:16:29;8.33;8.00;6.00
66195;PMS7003;53000;45.182;5.736;2023-06-14T07:18:55;7.00;7.00;6.00
66195;PMS7003;53000;45.182;5.736;2023-06-14T07:21:20;7.00;7.00;6.00
66195;PMS7003;53000;45.182;5.736;2023-06-14T07:23:47;7.00;7.00;6.00
66195;PMS7003;53000;45.182;5.736;2023-06-14T07:26:12;7.00;6.33;5.67
66195;PMS7003;53000;45.182;5.736;2023-06-14T07:28:37;8.75;7.75;6.00
66195;PMS7003;53000;45.182;5.736;2023-06-14T07:31:03;8.00;8.00;6.00
66195;PMS7003;53000;45.182;5.736;2023-06-14T07:33:28;3.67;3.67;2.33
66195;PMS7003;53000;45.182;5.736;2023-06-14T07:35:53;7.33;7.33;5.67
66195;PMS7003;53000;45.182;5.736;2023-06-14T07:38:19;7.67;7.00;5.00
66195;PMS7003;53000;45.182;5.736;2023-06-14T07:40:44;8.00;7.00;6.00
66195;PMS7003;53000;45.182;5.736;2023-06-14T07:43:10;6.67;6.00;5.33
66195;PMS7003;53000;45.182;5.736;2023-06-14T07:45:36;6.33;6.33;5.00
66195;PMS7003;53000;45.182;5.736;2023-06-14T07:48:02;7.00;6.00;4.33
66195;PMS7003;53000;45.182;5.736;2023-06-14T07:50:27;7.33;7.33;5.33
66195;PMS7003;53000;45.182;5.736;2023-06-14T07:52:53;5.33;5.33;4.33
66195;PMS7003;53000;45.182;5.736;2023-06-14T07:55:19;6.67;6.00;5.00
66195;PMS7003;53000;45.182;5.736;2023-06-14T07:57:44;7.33;6.00;4.33
66195;PMS7003;53000;45.182;5.736;2023-06-14T08:00:10;7.00;7.00;5.33
66195;PMS7003;53000;45.182;5.736;2023-06-14T08:02:40;7.25;7.25;6.00
66195;PMS7003;53000;45.182;5.736;2023-06-14T08:05:09;7.00;7.00;5.67
66195;PMS7003;53000;45.182;5.736;2023-06-14T08:07:36;5.67;5.67;4.33
66195;PMS7003;53000;45.182;5.736;2023-06-14T08:10:01;4.33;4.33;4.00
66195;PMS7003;53000;45.182;5.736;2023-06-14T08:12:27;7.67;6.00;5.33
66195;PMS7003;53000;45.182;5.736;2023-06-14T08:14:52;9.00;6.00;5.00
66195;PMS7003;53000;45.182;5.736;2023-06-14T08:17:18;6.00;5.00;4.00
66195;PMS7003;53000;45.182;5.736;2023-06-14T08:19:43;5.00;5.00;4.00
66195;PMS7003;53000;45.182;5.736;2023-06-14T08:22:08;7.00;6.00;6.00
66195;PMS7003;53000;45.182;5.736;2023-06-14T08:24:36;6.33;6.33;5.33
66195;PMS7003;53000;45.182;5.736;2023-06-14T08:27:02;5.33;5.33;4.00
66195;PMS7003;53000;45.182;5.736;2023-06-14T08:29:27;4.67;3.33;3.33
66195;PMS7003;53000;45.182;5.736;2023-06-14T08:31:54;3.33;3.33;3.00
66195;PMS7003;53000;45.182;5.736;2023-06-14T08:34:20;6.00;5.00;4.00
66195;PMS7003;53000;45.182;5.736;2023-06-14T08:36:45;4.00;4.00;3.00
66195;PMS7003;53000;45.182;5.736;2023-06-14T08:39:10;5.33;5.33;4.00
66195;PMS7003;53000;45.182;5.736;2023-06-14T08:41:36;5.00;5.00;4.00
66195;PMS7003;53000;45.182;5.736;2023-06-14T08:44:02;5.00;4.67;4.00
66195;PMS7003;53000;45.182;5.736;2023-06-14T08:46:28;5.67;5.67;4.33
66195;PMS7003;53000;45.182;5.736;2023-06-14T08:48:59;5.00;5.00;4.33
66195;PMS7003;53000;45.182;5.736;2023-06-14T08:51:25;5.00;5.00;4.00
66195;PMS7003;53000;45.182;5.736;2023-06-14T08:53:52;4.75;4.75;3.75
66195;PMS7003;53000;45.182;5.736;2023-06-14T08:56:24;4.00;4.00;3.00
66195;PMS7003;53000;45.182;5.736;2023-06-14T08:58:51;5.33;4.33;4.00
66195;PMS7003;53000;45.182;5.736;2023-06-14T09:01:16;5.00;5.00;3.75
66195;PMS7003;53000;45.182;5.736;2023-06-14T09:03:42;4.00;4.00;2.33
66195;PMS7003;53000;45.182;5.736;2023-06-14T09:06:09;4.75;4.75;4.25
66195;PMS7003;53000;45.182;5.736;2023-06-14T09:08:39;3.75;3.75;3.00
66195;PMS7003;53000;45.182;5.736;2023-06-14T09:11:06;3.00;3.00;2.00
66195;PMS7003;53000;45.182;5.736;2023-06-14T09:13:33;6.00;6.00;5.00
66195;PMS7003;53000;45.182;5.736;2023-06-14T09:15:58;5.75;5.75;3.75
66195;PMS7003;53000;45.182;5.736;2023-06-14T09:18:40;4.75;4.75;3.00
66195;PMS7003;53000;45.182;5.736;2023-06-14T09:21:13;3.50;3.50;3.00
66195;PMS7003;53000;45.182;5.736;2023-06-14T09:23:40;4.50;3.00;2.25
66195;PMS7003;53000;45.182;5.736;2023-06-14T09:26:07;2.75;2.75;2.75
66195;PMS7003;53000;45.182;5.736;2023-06-14T09:28:36;4.00;4.00;3.25
66195;PMS7003;53000;45.182;5.736;2023-06-14T09:31:05;1.00;1.00;0.00
66195;PMS7003;53000;45.182;5.736;2023-06-14T09:33:33;3.00;3.00;2.75
66195;PMS7003;53000;45.182;5.736;2023-06-14T09:35:59;4.00;4.00;3.75
66195;PMS7003;53000;45.182;5.736;2023-06-14T09:38:25;5.00;4.25;4.00
66195;PMS7003;53000;45.182;5.736;2023-06-14T09:40:50;2.00;2.00;2.00
66195;PMS7003;53000;45.182;5.736;2023-06-14T09:43:16;4.75;4.00;3.75
66195;PMS7003;53000;45.182;5.736;2023-06-14T09:45:43;5.00;4.00;3.25
66195;PMS7003;53000;45.182;5.736;2023-06-14T09:48:10;4.00;4.00;3.00
66195;PMS7003;53000;45.182;5.736;2023-06-14T09:50:42;3.75;3.75;3.00
66195;PMS7003;53000;45.182;5.736;2023-06-14T09:53:10;3.25;3.00;2.50
66195;PMS7003;53000;45.182;5.736;2023-06-14T09:55:37;2.00;2.00;2.00
66195;PMS7003;53000;45.182;5.736;2023-06-14T09:58:06;3.00;3.00;2.00
66195;PMS7003;53000;45.182;5.736;2023-06-14T10:00:35;3.75;3.00;2.00
66195;PMS7003;53000;45.182;5.736;2023-06-14T10:03:21;3.25;3.25;2.25
66195;PMS7003;53000;45.182;5.736;2023-06-14T10:05:50;4.00;3.75;2.75
66195;PMS7003;53000;45.182;5.736;2023-06-14T10:08:17;3.50;3.00;2.75
66195;PMS7003;53000;45.182;5.736;2023-06-14T10:10:45;4.50;4.50;4.00
66195;PMS7003;53000;45.182;5.736;2023-06-14T10:13:11;2.00;2.00;2.00
66195;PMS7003;53000;45.182;5.736;2023-06-14T10:23:46;5.00;3.00;2.25
66195;PMS7003;53000;45.182;5.736;2023-06-14T10:26:21;5.00;4.00;3.75
66195;PMS7003;53000;45.182;5.736;2023-06-14T10:31:26;2.00;0.50;0.00
66195;PMS7003;53000;45.182;5.736;2023-06-14T10:34:05;4.25;4.25;3.75
66195;PMS7003;53000;45.182;5.736;2023-06-14T10:36:31;4.75;4.75;4.00
66195;PMS7003;53000;45.182;5.736;2023-06-14T10:39:00;5.00;5.00;4.25
66195;PMS7003;53000;45.182;5.736;2023-06-14T10:41:29;7.25;5.75;5.25
66195;PMS7003;53000;45.182;5.736;2023-06-14T10:44:30;4.50;4.50;3.75
66195;PMS7003;53000;45.182;5.736;2023-06-14T10:47:00;6.00;4.50;4.50
66195;PMS7003;53000;45.182;5.736;2023-06-14T10:49:42;5.50;5.50;4.00
66195;PMS7003;53000;45.182;5.736;2023-06-14T10:52:09;5.75;5.75;4.75
66195;PMS7003;53000;45.182;5.736;2023-06-14T10:57:34;4.00;4.00;3.00
66195;PMS7003;53000;45.182;5.736;2023-06-14T11:00:11;5.25;5.25;5.00
66195;PMS7003;53000;45.182;5.736;2023-06-14T11:05:10;3.75;3.75;3.00
66195;PMS7003;53000;45.182;5.736;2023-06-14T11:07:55;5.25;5.00;4.75
66195;PMS7003;53000;45.182;5.736;2023-06-14T11:10:40;6.00;6.00;5.50
66195;PMS7003;53000;45.182;5.736;2023-06-14T11:13:07;6.00;6.00;4.25
66195;PMS7003;53000;45.182;5.736;2023-06-14T11:15:34;5.50;5.50;5.00
66195;PMS7003;53000;45.182;5.736;2023-06-14T11:18:04;6.00;6.00;4.25
66195;PMS7003;53000;45.182;5.736;2023-06-14T11:20:31;6.00;5.00;5.00
66195;PMS7003;53000;45.182;5.736;2023-06-14T11:22:58;6.00;6.00;5.00
66195;PMS7003;53000;45.182;5.736;2023-06-14T11:25:24;3.75;3.75;3.50
66195;PMS7003;53000;45.182;5.736;2023-06-14T11:27:50;6.00;5.00;4.25
66195;PMS7003;53000;45.182;5.736;2023-06-14T11:30:16;7.00;6.25;6.00
66195;PMS7003;53000;45.182;5.736;2023-06-14T11:32:41;6.25;5.25;4.50
66195;PMS7003;53000;45.182;5.736;2023-06-14T11:35:07;5.50;5.50;4.00
66195;PMS7003;53000;45.182;5.736;2023-06-14T11:37:35;7.00;7.00;5.75
66195;PMS7003;53000;45.182;5.736;2023-06-14T11:40:02;6.75;6.75;5.25
66195;PMS7003;53000;45.182;5.736;2023-06-14T11:42:34;7.00;7.00;6.00
66195;PMS7003;53000;45.182;5.736;2023-06-14T11:45:00;7.00;6.50;5.75
66195;PMS7003;53000;45.182;5.736;2023-06-14T11:47:33;8.00;7.00;6.50
66195;PMS7003;53000;45.182;5.736;2023-06-14T11:49:59;6.25;6.25;5.00
66195;PMS7003;53000;45.182;5.736;2023-06-14T11:52:24;9.25;8.00;6.00
66195;PMS7003;53000;45.182;5.736;2023-06-14T11:54:50;7.00;7.00;6.00
66195;PMS7003;53000;45.182;5.736;2023-06-14T11:57:17;6.75;6.75;4.75
66195;PMS7003;53000;45.182;5.736;2023-06-14T11:59:44;7.75;6.50;5.00
66195;PMS7003;53000;45.182;5.736;2023-06-14T12:02:19;7.25;7.00;5.00
66195;PMS7003;53000;45.182;5.736;2023-06-14T12:04:47;6.75;6.75;5.00
66195;PMS7003;53000;45.182;5.736;2023-06-14T12:07:15;7.00;6.75;5.50
66195;PMS7003;53000;45.182;5.736;2023-06-14T12:12:24;7.75;6.75;6.00
66195;PMS7003;53000;45.182;5.736;2023-06-14T12:14:54;7.00;7.00;5.50
66195;PMS7003;53000;45.182;5.736;2023-06-14T12:17:21;6.00;6.00;4.75
66195;PMS7003;53000;45.182;5.736;2023-06-14T12:19:48;8.00;7.25;6.25
66195;PMS7003;53000;45.182;5.736;2023-06-14T12:22:14;6.25;6.00;5.00
66195;PMS7003;53000;45.182;5.736;2023-06-14T12:24:44;8.25;6.50;5.25
66195;PMS7003;53000;45.182;5.736;2023-06-14T12:27:10;7.75;7.50;5.75
66195;PMS7003;53000;45.182;5.736;2023-06-14T12:29:40;7.75;7.75;6.00
66195;PMS7003;53000;45.182;5.736;2023-06-14T12:32:10;6.75;6.25;5.25
66195;PMS7003;53000;45.182;5.736;2023-06-14T12:34:36;8.75;8.75;7.25
66195;PMS7003;53000;45.182;5.736;2023-06-14T12:37:02;6.75;6.75;5.25
66195;PMS7003;53000;45.182;5.736;2023-06-14T12:39:29;6.25;6.25;5.25
66195;PMS7003;53000;45.182;5.736;2023-06-14T12:41:56;9.25;9.25;7.00
66195;PMS7003;53000;45.182;5.736;2023-06-14T12:44:22;8.75;8.75;7.25
66195;PMS7003;53000;45.182;5.736;2023-06-14T12:46:48;6.25;6.00;5.25
66195;PMS7003;53000;45.182;5.736;2023-06-14T12:49:16;5.75;5.75;4.25
66195;PMS7003;53000;45.182;5.736;2023-06-14T12:51:41;7.00;6.25;5.50
66195;PMS7003;53000;45.182;5.736;2023-06-14T12:54:07;8.25;8.25;7.25
66195;PMS7003;53000;45.182;5.736;2023-06-14T12:56:32;7.75;7.75;7.50
66195;PMS7003;53000;45.182;5.736;2023-06-14T12:58:58;9.25;9.25;6.50
66195;PMS7003;53000;45.182;5.736;2023-06-14T13:01:23;10.75;10.50;7.50
66195;PMS7003;53000;45.182;5.736;2023-06-14T13:03:49;0.00;0.00;0.00
66195;PMS7003;53000;45.182;5.736;2023-06-14T13:06:16;10.00;8.00;6.00
66195;PMS7003;53000;45.182;5.736;2023-06-14T13:08:42;8.50;8.50;6.25
66195;PMS7003;53000;45.182;5.736;2023-06-14T13:11:08;7.00;7.00;6.00
66195;PMS7003;53000;45.182;5.736;2023-06-14T13:13:33;8.00;8.00;6.25
66195;PMS7003;53000;45.182;5.736;2023-06-14T13:15:58;9.00;9.00;6.75
66195;PMS7003;53000;45.182;5.736;2023-06-14T13:18:24;8.25;7.50;7.00
66195;PMS7003;53000;45.182;5.736;2023-06-14T13:20:49;7.50;7.25;6.00
66195;PMS7003;53000;45.182;5.736;2023-06-14T13:23:15;9.25;7.75;6.25
66195;PMS7003;53000;45.182;5.736;2023-06-14T13:25:41;8.75;8.75;7.00
66195;PMS7003;53000;45.182;5.736;2023-06-14T13:28:06;9.75;9.75;8.50
66195;PMS7003;53000;45.182;5.736;2023-06-14T13:30:32;8.00;8.00;6.75
66195;PMS7003;53000;45.182;5.736;2023-06-14T13:32:58;9.75;9.75;7.75
66195;PMS7003;53000;45.182;5.736;2023-06-14T13:35:24;8.50;8.50;7.00
66195;PMS7003;53000;45.182;5.736;2023-06-14T13:37:50;8.00;7.75;6.50
66195;PMS7003;53000;45.182;5.736;2023-06-14T13:40:15;8.25;7.50;6.75
66195;PMS7003;53000;45.182;5.736;2023-06-14T13:42:41;10.75;10.25;8.25
66195;PMS7003;53000;45.182;5.736;2023-06-14T13:45:06;9.00;9.00;7.25
66195;PMS7003;53000;45.182;5.736;2023-06-14T13:47:33;9.50;9.00;7.00
66195;PMS7003;53000;45.182;5.736;2023-06-14T13:49:58;9.00;9.00;7.00
66195;PMS7003;53000;45.182;5.736;2023-06-14T13:52:24;6.00;6.00;5.50
66195;PMS7003;53000;45.182;5.736;2023-06-14T13:54:49;8.75;7.75;6.00
66195;PMS7003;53000;45.182;5.736;2023-06-14T13:57:15;9.00;8.75;6.00
66195;PMS7003;53000;45.182;5.736;2023-06-14T13:59:41;8.25;8.00;7.25
66195;PMS7003;53000;45.182;5.736;2023-06-14T14:02:08;9.00;8.50;7.00
66195;PMS7003;53000;45.182;5.736;2023-06-14T14:04:34;7.50;7.50;5.75
66195;PMS7003;53000;45.182;5.736;2023-06-14T14:07:03;11.00;11.00;9.00
66195;PMS7003;53000;45.182;5.736;2023-06-14T14:09:31;10.00;9.75;7.50
66195;PMS7003;53000;45.182;5.736;2023-06-14T14:11:57;10.25;10.25;8.50
66195;PMS7003;53000;45.182;5.736;2023-06-14T14:14:23;9.00;9.00;8.25
66195;PMS7003;53000;45.182;5.736;2023-06-14T14:16:48;12.25;11.75;8.75
66195;PMS7003;53000;45.182;5.736;2023-06-14T14:19:14;15.50;13.75;11.00
66195;PMS7003;53000;45.182;5.736;2023-06-14T14:21:39;12.25;10.50;8.75
66195;PMS7003;53000;45.182;5.736;2023-06-14T14:24:05;13.50;12.00;10.00
66195;PMS7003;53000;45.182;5.736;2023-06-14T14:26:30;10.75;10.75;8.50
66195;PMS7003;53000;45.182;5.736;2023-06-14T14:28:55;6.50;6.50;6.25
66195;PMS7003;53000;45.182;5.736;2023-06-14T14:31:21;13.00;12.00;9.25
66195;PMS7003;53000;45.182;5.736;2023-06-14T14:33:46;10.50;10.50;9.00
66195;PMS7003;53000;45.182;5.736;2023-06-14T14:36:11;12.50;12.50;9.00
66195;PMS7003;53000;45.182;5.736;2023-06-14T14:38:38;10.50;9.75;8.00
66195;PMS7003;53000;45.182;5.736;2023-06-14T14:41:04;9.75;9.75;6.25
66195;PMS7003;53000;45.182;5.736;2023-06-14T14:43:30;4.00;4.00;3.00
66195;PMS7003;53000;45.182;5.736;2023-06-14T14:45:56;13.25;10.00;7.25
66195;PMS7003;53000;45.182;5.736;2023-06-14T14:48:21;6.50;5.25;3.50
66195;PMS7003;53000;45.182;5.736;2023-06-14T14:50:47;10.00;10.00;8.00
66195;PMS7003;53000;45.182;5.736;2023-06-14T14:53:13;9.50;9.50;7.75
66195;PMS7003;53000;45.182;5.736;2023-06-14T14:55:38;10.25;10.25;7.25
66195;PMS7003;53000;45.182;5.736;2023-06-14T14:58:05;9.25;8.25;7.25
66195;PMS7003;53000;45.182;5.736;2023-06-14T15:00:31;13.75;10.75;8.25
66195;PMS7003;53000;45.182;5.736;2023-06-14T15:02:57;9.75;9.75;7.50
66195;PMS7003;53000;45.182;5.736;2023-06-14T15:05:22;10.00;8.75;8.00
66195;PMS7003;53000;45.182;5.736;2023-06-14T15:07:47;10.50;10.50;9.00
66195;PMS7003;53000;45.182;5.736;2023-06-14T15:10:13;8.75;8.75;7.00
66195;PMS7003;53000;45.182;5.736;2023-06-14T15:12:39;10.25;10.00;8.25
66195;PMS7003;53000;45.182;5.736;2023-06-14T15:15:04;9.75;8.75;7.00
66195;PMS7003;53000;45.182;5.736;2023-06-14T15:17:30;8.50;8.50;6.00
66195;PMS7003;53000;45.182;5.736;2023-06-14T15:19:55;8.25;7.00;7.00